sensor_id;sensor_type;location;lat;lon;timestamp;P1;durP1;ratioP1;P2;durP2;ratioP2
20320;SDS011;10318;47.674;9.052;2022-12-18T00:01:05;57.22;;;29.92;;
20320;SDS011;10318;47.674;9.052;2022-12-18T00:03:39;56.63;;;30.02;;
20320;SDS011;10318;47.674;9.052;2022-12-18T00:06:07;55.45;;;29.25;;
20320;SDS011;10318;47.674;9.052;2022-12-18T00:08:34;55.65;;;29.95;;
20320;SDS011;10318;47.674;9.052;2022-12-18T00:11:05;53.03;;;28.92;;
20320;SDS011;10318;47.674;9.052;2022-12-18T00:13:32;57.28;;;29.38;;
20320;SDS011;10318;47.674;9.052;2022-12-18T00:16:03;60.58;;;30.98;;
20320;SDS011;10318;47.674;9.052;2022-12-18T00:18:30;57.97;;;30.92;;
20320;SDS011;10318;47.674;9.052;2022-12-18T00:20:59;52.03;;;28.92;;
20320;SDS011;10318;47.674;9.052;2022-12-18T00:23:25;54.75;;;29.52;;
20320;SDS011;10318;47.674;9.052;2022-12-18T00:25:52;55.83;;;29.55;;
20320;SDS011;10318;47.674;9.052;2022-12-18T00:28:19;58.08;;;30.13;;
20320;SDS011;10318;47.674;9.052;2022-12-18T00:30:46;59.53;;;32.05;;
20320;SDS011;10318;47.674;9.052;2022-12-18T00:33:12;53.55;;;29.30;;
20320;SDS011;10318;47.674;9.052;2022-12-18T00:35:39;57.28;;;29.25;;
20320;SDS011;10318;47.674;9.052;2022-12-18T00:38:06;61.83;;;30.63;;
20320;SDS011;10318;47.674;9.052;2022-12-18T00:40:32;62.05;;;32.15;;
20320;SDS011;10318;47.674;9.052;2022-12-18T00:42:59;56.17;;;29.60;;
20320;SDS011;10318;47.674;9.052;2022-12-18T00:45:27;56.83;;;29.80;;
20320;SDS011;10318;47.674;9.052;2022-12-18T00:47:54;57.85;;;29.75;;
20320;SDS011;10318;47.674;9.052;2022-12-18T00:50:22;56.83;;;30.83;;
20320;SDS011;10318;47.674;9.052;2022-12-18T00:52:49;59.72;;;30.00;;
20320;SDS011;10318;47.674;9.052;2022-12-18T00:55:16;51.40;;;27.45;;
20320;SDS011;10318;47.674;9.052;2022-12-18T00:57:43;49.30;;;25.90;;
20320;SDS011;10318;47.674;9.052;2022-12-18T01:00:12;50.97;;;25.85;;
20320;SDS011;10318;47.674;9.052;2022-12-18T01:02:39;47.33;;;25.13;;
20320;SDS011;10318;47.674;9.052;2022-12-18T01:05:07;51.20;;;26.35;;
20320;SDS011;10318;47.674;9.052;2022-12-18T01:07:34;50.38;;;27.30;;
20320;SDS011;10318;47.674;9.052;2022-12-18T01:10:02;55.95;;;28.48;;
20320;SDS011;10318;47.674;9.052;2022-12-18T01:12:29;53.88;;;27.52;;
20320;SDS011;10318;47.674;9.052;2022-12-18T01:14:56;49.03;;;26.08;;
20320;SDS011;10318;47.674;9.052;2022-12-18T01:17:22;48.65;;;26.55;;
20320;SDS011;10318;47.674;9.052;2022-12-18T01:19:49;53.38;;;25.83;;
20320;SDS011;10318;47.674;9.052;2022-12-18T01:22:16;51.83;;;27.20;;
20320;SDS011;10318;47.674;9.052;2022-12-18T01:24:43;52.30;;;27.20;;
20320;SDS011;10318;47.674;9.052;2022-12-18T01:27:10;52.58;;;27.65;;
20320;SDS011;10318;47.674;9.052;2022-12-18T01:29:38;56.65;;;27.98;;
20320;SDS011;10318;47.674;9.052;2022-12-18T01:32:05;53.67;;;26.20;;
20320;SDS011;10318;47.674;9.052;2022-12-18T01:34:32;48.95;;;25.70;;
20320;SDS011;10318;47.674;9.052;2022-12-18T01:36:58;47.47;;;24.75;;
20320;SDS011;10318;47.674;9.052;2022-12-18T01:39:29;52.85;;;26.00;;
20320;SDS011;10318;47.674;9.052;2022-12-18T01:41:58;45.97;;;24.65;;
20320;SDS011;10318;47.674;9.052;2022-12-18T01:47:21;49.45;;;25.85;;
20320;SDS011;10318;47.674;9.052;2022-12-18T01:49:50;49.92;;;25.08;;
20320;SDS011;10318;47.674;9.052;2022-12-18T01:52:17;47.92;;;25.73;;
20320;SDS011;10318;47.674;9.052;2022-12-18T01:54:44;52.85;;;25.63;;
20320;SDS011;10318;47.674;9.052;2022-12-18T01:57:11;47.78;;;24.95;;
20320;SDS011;10318;47.674;9.052;2022-12-18T01:59:38;48.40;;;24.98;;
20320;SDS011;10318;47.674;9.052;2022-12-18T02:02:06;46.97;;;23.85;;
20320;SDS011;10318;47.674;9.052;2022-12-18T02:04:34;47.67;;;24.25;;
20320;SDS011;10318;47.674;9.052;2022-12-18T02:09:34;52.30;;;26.88;;
20320;SDS011;10318;47.674;9.052;2022-12-18T02:14:32;48.33;;;24.65;;
20320;SDS011;10318;47.674;9.052;2022-12-18T02:27:18;53.42;;;25.77;;
20320;SDS011;10318;47.674;9.052;2022-12-18T02:29:52;48.33;;;24.73;;
20320;SDS011;10318;47.674;9.052;2022-12-18T02:32:34;53.28;;;26.23;;
20320;SDS011;10318;47.674;9.052;2022-12-18T02:35:02;50.70;;;24.52;;
20320;SDS011;10318;47.674;9.052;2022-12-18T02:37:31;45.72;;;23.20;;
20320;SDS011;10318;47.674;9.052;2022-12-18T02:40:01;46.58;;;22.85;;
20320;SDS011;10318;47.674;9.052;2022-12-18T02:42:31;49.00;;;23.27;;
20320;SDS011;10318;47.674;9.052;2022-12-18T02:44:59;45.45;;;23.90;;
20320;SDS011;10318;47.674;9.052;2022-12-18T02:47:34;43.80;;;23.48;;
20320;SDS011;10318;47.674;9.052;2022-12-18T02:50:14;44.90;;;23.60;;
20320;SDS011;10318;47.674;9.052;2022-12-18T02:52:55;44.50;;;24.05;;
20320;SDS011;10318;47.674;9.052;2022-12-18T02:58:05;49.63;;;25.95;;
20320;SDS011;10318;47.674;9.052;2022-12-18T03:00:54;50.08;;;25.83;;
20320;SDS011;10318;47.674;9.052;2022-12-18T03:06:07;52.72;;;26.60;;
20320;SDS011;10318;47.674;9.052;2022-12-18T03:08:40;47.90;;;24.25;;
20320;SDS011;10318;47.674;9.052;2022-12-18T03:11:09;45.78;;;24.35;;
20320;SDS011;10318;47.674;9.052;2022-12-18T03:13:39;50.80;;;24.63;;
20320;SDS011;10318;47.674;9.052;2022-12-18T03:16:11;50.95;;;26.30;;
20320;SDS011;10318;47.674;9.052;2022-12-18T03:18:41;50.50;;;25.33;;
20320;SDS011;10318;47.674;9.052;2022-12-18T03:21:09;51.88;;;25.52;;
20320;SDS011;10318;47.674;9.052;2022-12-18T03:23:40;51.17;;;27.23;;
20320;SDS011;10318;47.674;9.052;2022-12-18T03:26:09;52.05;;;25.83;;
20320;SDS011;10318;47.674;9.052;2022-12-18T03:28:39;50.95;;;25.65;;
20320;SDS011;10318;47.674;9.052;2022-12-18T03:31:08;48.08;;;24.48;;
20320;SDS011;10318;47.674;9.052;2022-12-18T03:33:43;47.03;;;26.00;;
20320;SDS011;10318;47.674;9.052;2022-12-18T03:36:13;48.53;;;25.92;;
20320;SDS011;10318;47.674;9.052;2022-12-18T03:38:40;50.90;;;26.83;;
20320;SDS011;10318;47.674;9.052;2022-12-18T03:46:41;48.13;;;24.17;;
20320;SDS011;10318;47.674;9.052;2022-12-18T03:49:10;51.22;;;25.45;;
20320;SDS011;10318;47.674;9.052;2022-12-18T03:51:41;48.22;;;25.77;;
20320;SDS011;10318;47.674;9.052;2022-12-18T03:54:09;51.50;;;26.25;;
20320;SDS011;10318;47.674;9.052;2022-12-18T03:56:44;51.08;;;26.88;;
20320;SDS011;10318;47.674;9.052;2022-12-18T03:59:13;52.17;;;28.27;;
20320;SDS011;10318;47.674;9.052;2022-12-18T04:01:42;51.97;;;27.00;;
20320;SDS011;10318;47.674;9.052;2022-12-18T04:04:13;53.25;;;27.45;;
20320;SDS011;10318;47.674;9.052;2022-12-18T04:06:42;51.17;;;26.33;;
20320;SDS011;10318;47.674;9.052;2022-12-18T04:09:11;57.90;;;29.05;;
20320;SDS011;10318;47.674;9.052;2022-12-18T04:11:42;51.95;;;26.63;;
20320;SDS011;10318;47.674;9.052;2022-12-18T04:14:13;52.30;;;26.90;;
20320;SDS011;10318;47.674;9.052;2022-12-18T04:16:46;52.15;;;26.45;;
20320;SDS011;10318;47.674;9.052;2022-12-18T04:19:15;55.15;;;26.48;;
20320;SDS011;10318;47.674;9.052;2022-12-18T04:21:43;53.15;;;26.63;;
20320;SDS011;10318;47.674;9.052;2022-12-18T04:24:12;51.55;;;26.85;;
20320;SDS011;10318;47.674;9.052;2022-12-18T04:26:46;54.00;;;28.17;;
20320;SDS011;10318;47.674;9.052;2022-12-18T04:29:16;52.78;;;26.65;;
20320;SDS011;10318;47.674;9.052;2022-12-18T04:31:43;53.35;;;27.15;;
20320;SDS011;10318;47.674;9.052;2022-12-18T04:34:10;56.20;;;27.70;;
20320;SDS011;10318;47.674;9.052;2022-12-18T04:36:42;51.90;;;26.15;;
20320;SDS011;10318;47.674;9.052;2022-12-18T04:39:09;52.60;;;26.95;;
20320;SDS011;10318;47.674;9.052;2022-12-18T04:41:36;47.53;;;24.90;;
20320;SDS011;10318;47.674;9.052;2022-12-18T04:44:03;59.42;;;28.90;;
20320;SDS011;10318;47.674;9.052;2022-12-18T04:46:30;56.15;;;28.13;;
20320;SDS011;10318;47.674;9.052;2022-12-18T04:48:56;58.80;;;27.65;;
20320;SDS011;10318;47.674;9.052;2022-12-18T04:51:23;54.40;;;27.20;;
20320;SDS011;10318;47.674;9.052;2022-12-18T04:53:52;58.72;;;29.65;;
20320;SDS011;10318;47.674;9.052;2022-12-18T04:56:19;63.03;;;29.60;;
20320;SDS011;10318;47.674;9.052;2022-12-18T04:58:45;62.38;;;29.60;;
20320;SDS011;10318;47.674;9.052;2022-12-18T05:01:13;62.95;;;30.40;;
20320;SDS011;10318;47.674;9.052;2022-12-18T05:03:40;61.53;;;30.77;;
20320;SDS011;10318;47.674;9.052;2022-12-18T05:06:07;63.92;;;32.15;;
20320;SDS011;10318;47.674;9.052;2022-12-18T05:08:34;63.47;;;29.38;;
20320;SDS011;10318;47.674;9.052;2022-12-18T05:11:04;62.40;;;30.40;;
20320;SDS011;10318;47.674;9.052;2022-12-18T05:13:31;63.67;;;30.45;;
20320;SDS011;10318;47.674;9.052;2022-12-18T05:15:58;61.10;;;29.60;;
20320;SDS011;10318;47.674;9.052;2022-12-18T05:18:25;65.07;;;30.95;;
20320;SDS011;10318;47.674;9.052;2022-12-18T05:20:52;60.30;;;29.45;;
20320;SDS011;10318;47.674;9.052;2022-12-18T05:23:19;62.65;;;30.30;;
20320;SDS011;10318;47.674;9.052;2022-12-18T05:28:18;63.53;;;30.65;;
20320;SDS011;10318;47.674;9.052;2022-12-18T05:30:49;65.25;;;31.08;;
20320;SDS011;10318;47.674;9.052;2022-12-18T05:33:16;58.80;;;29.23;;
20320;SDS011;10318;47.674;9.052;2022-12-18T05:35:43;63.03;;;31.23;;
20320;SDS011;10318;47.674;9.052;2022-12-18T05:38:10;62.30;;;29.55;;
20320;SDS011;10318;47.674;9.052;2022-12-18T05:40:37;57.53;;;29.23;;
20320;SDS011;10318;47.674;9.052;2022-12-18T05:43:03;65.80;;;31.38;;
20320;SDS011;10318;47.674;9.052;2022-12-18T05:45:30;60.15;;;29.48;;
20320;SDS011;10318;47.674;9.052;2022-12-18T05:47:57;54.92;;;26.20;;
20320;SDS011;10318;47.674;9.052;2022-12-18T05:50:23;50.15;;;25.85;;
20320;SDS011;10318;47.674;9.052;2022-12-18T05:52:50;58.03;;;28.35;;
20320;SDS011;10318;47.674;9.052;2022-12-18T05:55:17;56.03;;;27.85;;
20320;SDS011;10318;47.674;9.052;2022-12-18T05:57:44;53.45;;;26.13;;
20320;SDS011;10318;47.674;9.052;2022-12-18T06:00:11;51.50;;;26.30;;
20320;SDS011;10318;47.674;9.052;2022-12-18T06:02:38;48.80;;;25.65;;
20320;SDS011;10318;47.674;9.052;2022-12-18T06:05:05;58.55;;;27.88;;
20320;SDS011;10318;47.674;9.052;2022-12-18T06:07:31;56.40;;;27.00;;
20320;SDS011;10318;47.674;9.052;2022-12-18T06:09:58;52.20;;;25.90;;
20320;SDS011;10318;47.674;9.052;2022-12-18T06:12:25;53.95;;;25.88;;
20320;SDS011;10318;47.674;9.052;2022-12-18T06:14:51;54.97;;;26.15;;
20320;SDS011;10318;47.674;9.052;2022-12-18T06:17:18;51.22;;;27.42;;
20320;SDS011;10318;47.674;9.052;2022-12-18T06:19:45;49.90;;;25.52;;
20320;SDS011;10318;47.674;9.052;2022-12-18T06:22:11;51.22;;;26.25;;
20320;SDS011;10318;47.674;9.052;2022-12-18T06:24:38;49.65;;;25.20;;
20320;SDS011;10318;47.674;9.052;2022-12-18T06:27:05;55.85;;;26.40;;
20320;SDS011;10318;47.674;9.052;2022-12-18T06:29:31;53.53;;;26.70;;
20320;SDS011;10318;47.674;9.052;2022-12-18T06:31:58;59.15;;;28.23;;
20320;SDS011;10318;47.674;9.052;2022-12-18T06:34:24;52.42;;;26.05;;
20320;SDS011;10318;47.674;9.052;2022-12-18T06:36:51;60.97;;;28.15;;
20320;SDS011;10318;47.674;9.052;2022-12-18T06:39:18;55.90;;;29.02;;
20320;SDS011;10318;47.674;9.052;2022-12-18T06:41:45;56.58;;;27.73;;
20320;SDS011;10318;47.674;9.052;2022-12-18T06:44:11;58.42;;;29.13;;
20320;SDS011;10318;47.674;9.052;2022-12-18T06:46:38;51.72;;;26.65;;
20320;SDS011;10318;47.674;9.052;2022-12-18T06:49:05;54.28;;;27.08;;
20320;SDS011;10318;47.674;9.052;2022-12-18T06:51:32;59.22;;;27.25;;
20320;SDS011;10318;47.674;9.052;2022-12-18T06:53:59;53.70;;;27.08;;
20320;SDS011;10318;47.674;9.052;2022-12-18T06:56:25;52.85;;;27.52;;
20320;SDS011;10318;47.674;9.052;2022-12-18T06:58:52;55.15;;;26.90;;
20320;SDS011;10318;47.674;9.052;2022-12-18T07:01:19;59.97;;;27.33;;
20320;SDS011;10318;47.674;9.052;2022-12-18T07:03:46;54.67;;;28.40;;
20320;SDS011;10318;47.674;9.052;2022-12-18T07:06:14;57.35;;;29.33;;
20320;SDS011;10318;47.674;9.052;2022-12-18T07:08:41;58.35;;;27.63;;
20320;SDS011;10318;47.674;9.052;2022-12-18T07:11:08;56.58;;;28.13;;
20320;SDS011;10318;47.674;9.052;2022-12-18T07:13:34;54.83;;;26.90;;
20320;SDS011;10318;47.674;9.052;2022-12-18T07:16:05;55.10;;;27.05;;
20320;SDS011;10318;47.674;9.052;2022-12-18T07:18:41;53.17;;;26.10;;
20320;SDS011;10318;47.674;9.052;2022-12-18T07:21:09;56.03;;;27.67;;
20320;SDS011;10318;47.674;9.052;2022-12-18T07:23:36;52.28;;;27.33;;
20320;SDS011;10318;47.674;9.052;2022-12-18T07:26:04;57.38;;;28.08;;
20320;SDS011;10318;47.674;9.052;2022-12-18T07:28:32;57.17;;;28.25;;
20320;SDS011;10318;47.674;9.052;2022-12-18T07:31:11;56.58;;;28.40;;
20320;SDS011;10318;47.674;9.052;2022-12-18T07:33:38;58.58;;;29.42;;
20320;SDS011;10318;47.674;9.052;2022-12-18T07:36:06;56.95;;;29.08;;
20320;SDS011;10318;47.674;9.052;2022-12-18T07:38:34;60.47;;;28.90;;
20320;SDS011;10318;47.674;9.052;2022-12-18T07:41:01;57.38;;;28.83;;
20320;SDS011;10318;47.674;9.052;2022-12-18T07:43:28;55.60;;;28.35;;
20320;SDS011;10318;47.674;9.052;2022-12-18T07:45:55;56.70;;;28.13;;
20320;SDS011;10318;47.674;9.052;2022-12-18T07:48:21;60.20;;;29.88;;
20320;SDS011;10318;47.674;9.052;2022-12-18T07:50:48;59.33;;;28.48;;
20320;SDS011;10318;47.674;9.052;2022-12-18T07:53:15;55.72;;;27.30;;
20320;SDS011;10318;47.674;9.052;2022-12-18T07:55:42;60.40;;;29.67;;
20320;SDS011;10318;47.674;9.052;2022-12-18T07:58:28;62.25;;;29.25;;
20320;SDS011;10318;47.674;9.052;2022-12-18T08:01:02;59.22;;;28.88;;
20320;SDS011;10318;47.674;9.052;2022-12-18T08:03:28;59.55;;;29.20;;
20320;SDS011;10318;47.674;9.052;2022-12-18T08:05:59;57.15;;;28.23;;
20320;SDS011;10318;47.674;9.052;2022-12-18T08:08:26;62.60;;;28.33;;
20320;SDS011;10318;47.674;9.052;2022-12-18T08:10:53;65.18;;;30.75;;
20320;SDS011;10318;47.674;9.052;2022-12-18T08:13:20;57.83;;;27.85;;
20320;SDS011;10318;47.674;9.052;2022-12-18T08:15:54;59.15;;;29.90;;
20320;SDS011;10318;47.674;9.052;2022-12-18T08:18:21;62.78;;;28.85;;
20320;SDS011;10318;47.674;9.052;2022-12-18T08:20:48;57.13;;;28.30;;
20320;SDS011;10318;47.674;9.052;2022-12-18T08:23:14;52.25;;;27.33;;
20320;SDS011;10318;47.674;9.052;2022-12-18T08:25:41;57.47;;;26.77;;
20320;SDS011;10318;47.674;9.052;2022-12-18T08:28:08;56.92;;;26.83;;
20320;SDS011;10318;47.674;9.052;2022-12-18T08:30:35;60.17;;;28.52;;
20320;SDS011;10318;47.674;9.052;2022-12-18T08:33:02;61.88;;;30.15;;
20320;SDS011;10318;47.674;9.052;2022-12-18T08:35:29;61.78;;;29.45;;
20320;SDS011;10318;47.674;9.052;2022-12-18T08:38:03;56.85;;;28.52;;
20320;SDS011;10318;47.674;9.052;2022-12-18T08:40:30;60.03;;;28.48;;
20320;SDS011;10318;47.674;9.052;2022-12-18T08:42:56;60.30;;;28.38;;
20320;SDS011;10318;47.674;9.052;2022-12-18T08:45:41;59.95;;;29.33;;
20320;SDS011;10318;47.674;9.052;2022-12-18T08:48:08;59.40;;;30.73;;
20320;SDS011;10318;47.674;9.052;2022-12-18T08:50:35;60.17;;;28.38;;
20320;SDS011;10318;47.674;9.052;2022-12-18T08:53:01;57.63;;;27.65;;
20320;SDS011;10318;47.674;9.052;2022-12-18T08:55:28;57.17;;;27.83;;
20320;SDS011;10318;47.674;9.052;2022-12-18T08:57:55;55.78;;;26.88;;
20320;SDS011;10318;47.674;9.052;2022-12-18T09:00:22;55.50;;;27.83;;
20320;SDS011;10318;47.674;9.052;2022-12-18T09:02:48;60.85;;;28.40;;
20320;SDS011;10318;47.674;9.052;2022-12-18T09:05:15;64.22;;;29.77;;
20320;SDS011;10318;47.674;9.052;2022-12-18T09:07:42;60.92;;;29.38;;
20320;SDS011;10318;47.674;9.052;2022-12-18T09:10:09;58.33;;;27.58;;
20320;SDS011;10318;47.674;9.052;2022-12-18T09:12:35;61.88;;;30.58;;
20320;SDS011;10318;47.674;9.052;2022-12-18T09:15:02;59.38;;;29.38;;
20320;SDS011;10318;47.674;9.052;2022-12-18T09:17:29;58.80;;;27.70;;
20320;SDS011;10318;47.674;9.052;2022-12-18T09:19:56;58.47;;;28.30;;
20320;SDS011;10318;47.674;9.052;2022-12-18T09:22:22;63.80;;;28.63;;
20320;SDS011;10318;47.674;9.052;2022-12-18T09:24:49;62.75;;;29.17;;
20320;SDS011;10318;47.674;9.052;2022-12-18T09:27:16;61.88;;;28.45;;
20320;SDS011;10318;47.674;9.052;2022-12-18T09:29:42;61.10;;;27.88;;
20320;SDS011;10318;47.674;9.052;2022-12-18T09:32:09;58.35;;;28.90;;
20320;SDS011;10318;47.674;9.052;2022-12-18T09:34:35;57.28;;;27.50;;
20320;SDS011;10318;47.674;9.052;2022-12-18T09:37:02;61.50;;;28.42;;
20320;SDS011;10318;47.674;9.052;2022-12-18T09:39:29;60.95;;;28.95;;
20320;SDS011;10318;47.674;9.052;2022-12-18T09:41:56;60.28;;;28.08;;
20320;SDS011;10318;47.674;9.052;2022-12-18T09:44:27;55.97;;;27.30;;
20320;SDS011;10318;47.674;9.052;2022-12-18T09:46:58;60.35;;;28.75;;
20320;SDS011;10318;47.674;9.052;2022-12-18T09:49:28;57.33;;;28.63;;
20320;SDS011;10318;47.674;9.052;2022-12-18T09:52:08;63.35;;;28.50;;
20320;SDS011;10318;47.674;9.052;2022-12-18T09:54:40;56.60;;;27.92;;
20320;SDS011;10318;47.674;9.052;2022-12-18T09:57:15;57.83;;;27.02;;
20320;SDS011;10318;47.674;9.052;2022-12-18T09:59:44;64.28;;;30.25;;
20320;SDS011;10318;47.674;9.052;2022-12-18T10:02:14;57.15;;;27.05;;
20320;SDS011;10318;47.674;9.052;2022-12-18T10:04:41;57.50;;;27.95;;
20320;SDS011;10318;47.674;9.052;2022-12-18T10:07:11;57.58;;;27.92;;
20320;SDS011;10318;47.674;9.052;2022-12-18T10:09:52;52.50;;;27.02;;
20320;SDS011;10318;47.674;9.052;2022-12-18T10:12:30;55.78;;;27.15;;
20320;SDS011;10318;47.674;9.052;2022-12-18T10:20:37;53.40;;;25.10;;
20320;SDS011;10318;47.674;9.052;2022-12-18T10:28:32;50.72;;;25.38;;
20320;SDS011;10318;47.674;9.052;2022-12-18T10:30:59;49.25;;;24.13;;
20320;SDS011;10318;47.674;9.052;2022-12-18T10:33:29;50.08;;;24.40;;
20320;SDS011;10318;47.674;9.052;2022-12-18T10:35:56;50.42;;;24.40;;
20320;SDS011;10318;47.674;9.052;2022-12-18T10:38:25;50.30;;;24.35;;
20320;SDS011;10318;47.674;9.052;2022-12-18T10:41:02;50.33;;;24.23;;
20320;SDS011;10318;47.674;9.052;2022-12-18T10:43:31;52.13;;;24.88;;
20320;SDS011;10318;47.674;9.052;2022-12-18T10:48:24;49.88;;;23.70;;
20320;SDS011;10318;47.674;9.052;2022-12-18T10:50:51;52.35;;;24.95;;
20320;SDS011;10318;47.674;9.052;2022-12-18T10:53:38;48.50;;;24.17;;
20320;SDS011;10318;47.674;9.052;2022-12-18T10:56:06;44.60;;;22.13;;
20320;SDS011;10318;47.674;9.052;2022-12-18T10:58:34;52.97;;;25.98;;
20320;SDS011;10318;47.674;9.052;2022-12-18T11:03:33;44.13;;;22.33;;
20320;SDS011;10318;47.674;9.052;2022-12-18T11:06:12;50.72;;;24.83;;
20320;SDS011;10318;47.674;9.052;2022-12-18T11:08:40;51.38;;;25.15;;
20320;SDS011;10318;47.674;9.052;2022-12-18T11:11:21;46.70;;;23.77;;
20320;SDS011;10318;47.674;9.052;2022-12-18T11:14:03;47.78;;;23.35;;
20320;SDS011;10318;47.674;9.052;2022-12-18T11:16:42;47.03;;;23.67;;
20320;SDS011;10318;47.674;9.052;2022-12-18T11:21:55;46.95;;;23.42;;
20320;SDS011;10318;47.674;9.052;2022-12-18T11:26:59;46.58;;;22.98;;
20320;SDS011;10318;47.674;9.052;2022-12-18T11:29:38;44.28;;;23.17;;
20320;SDS011;10318;47.674;9.052;2022-12-18T11:34:42;48.72;;;24.52;;
20320;SDS011;10318;47.674;9.052;2022-12-18T11:37:12;47.75;;;22.58;;
20320;SDS011;10318;47.674;9.052;2022-12-18T11:39:45;48.35;;;23.33;;
20320;SDS011;10318;47.674;9.052;2022-12-18T11:42:14;44.78;;;21.83;;
20320;SDS011;10318;47.674;9.052;2022-12-18T11:47:13;45.20;;;22.15;;
20320;SDS011;10318;47.674;9.052;2022-12-18T11:49:42;43.60;;;21.20;;
20320;SDS011;10318;47.674;9.052;2022-12-18T11:54:41;43.47;;;22.08;;
20320;SDS011;10318;47.674;9.052;2022-12-18T12:10:24;46.67;;;22.77;;
20320;SDS011;10318;47.674;9.052;2022-12-18T12:13:11;45.30;;;22.63;;
20320;SDS011;10318;47.674;9.052;2022-12-18T12:16:07;42.70;;;21.55;;
20320;SDS011;10318;47.674;9.052;2022-12-18T12:21:07;43.00;;;20.70;;
20320;SDS011;10318;47.674;9.052;2022-12-18T12:23:41;43.65;;;19.92;;
20320;SDS011;10318;47.674;9.052;2022-12-18T12:26:14;39.15;;;20.02;;
20320;SDS011;10318;47.674;9.052;2022-12-18T12:37:11;38.47;;;19.75;;
20320;SDS011;10318;47.674;9.052;2022-12-18T12:39:34;40.95;;;20.17;;
20320;SDS011;10318;47.674;9.052;2022-12-18T12:42:04;44.78;;;23.77;;
20320;SDS011;10318;47.674;9.052;2022-12-18T12:45:14;44.28;;;20.45;;
20320;SDS011;10318;47.674;9.052;2022-12-18T12:47:42;40.42;;;20.75;;
20320;SDS011;10318;47.674;9.052;2022-12-18T12:50:13;43.08;;;22.55;;
20320;SDS011;10318;47.674;9.052;2022-12-18T12:52:46;39.45;;;19.92;;
20320;SDS011;10318;47.674;9.052;2022-12-18T12:55:16;43.13;;;21.88;;
20320;SDS011;10318;47.674;9.052;2022-12-18T12:57:54;43.03;;;21.67;;
20320;SDS011;10318;47.674;9.052;2022-12-18T13:00:24;40.90;;;20.77;;
20320;SDS011;10318;47.674;9.052;2022-12-18T13:05:40;41.55;;;20.70;;
20320;SDS011;10318;47.674;9.052;2022-12-18T13:08:10;38.47;;;19.38;;
20320;SDS011;10318;47.674;9.052;2022-12-18T13:10:41;40.97;;;20.13;;
20320;SDS011;10318;47.674;9.052;2022-12-18T13:13:15;43.05;;;21.15;;
20320;SDS011;10318;47.674;9.052;2022-12-18T13:15:50;42.15;;;20.73;;
20320;SDS011;10318;47.674;9.052;2022-12-18T13:18:29;38.88;;;19.63;;
20320;SDS011;10318;47.674;9.052;2022-12-18T13:23:30;42.50;;;21.52;;
20320;SDS011;10318;47.674;9.052;2022-12-18T13:25:58;40.75;;;20.63;;
20320;SDS011;10318;47.674;9.052;2022-12-18T13:30:53;41.50;;;21.20;;
20320;SDS011;10318;47.674;9.052;2022-12-18T13:35:53;44.03;;;23.45;;
20320;SDS011;10318;47.674;9.052;2022-12-18T13:38:21;44.30;;;20.80;;
20320;SDS011;10318;47.674;9.052;2022-12-18T13:48:22;48.78;;;23.77;;
20320;SDS011;10318;47.674;9.052;2022-12-18T13:53:39;57.22;;;25.58;;
20320;SDS011;10318;47.674;9.052;2022-12-18T13:56:09;59.10;;;27.58;;
20320;SDS011;10318;47.674;9.052;2022-12-18T13:58:35;63.78;;;28.73;;
20320;SDS011;10318;47.674;9.052;2022-12-18T14:01:02;55.45;;;25.88;;
20320;SDS011;10318;47.674;9.052;2022-12-18T14:03:31;57.22;;;24.25;;
20320;SDS011;10318;47.674;9.052;2022-12-18T14:06:01;50.55;;;24.20;;
20320;SDS011;10318;47.674;9.052;2022-12-18T14:08:32;49.50;;;24.55;;
20320;SDS011;10318;47.674;9.052;2022-12-18T14:10:59;45.78;;;23.38;;
20320;SDS011;10318;47.674;9.052;2022-12-18T14:13:32;45.10;;;21.90;;
20320;SDS011;10318;47.674;9.052;2022-12-18T14:16:01;44.33;;;22.33;;
20320;SDS011;10318;47.674;9.052;2022-12-18T14:18:42;45.65;;;23.45;;
20320;SDS011;10318;47.674;9.052;2022-12-18T14:21:18;43.60;;;21.92;;
20320;SDS011;10318;47.674;9.052;2022-12-18T14:23:46;47.92;;;22.17;;
20320;SDS011;10318;47.674;9.052;2022-12-18T14:28:53;45.55;;;23.80;;
20320;SDS011;10318;47.674;9.052;2022-12-18T14:31:21;45.17;;;21.75;;
20320;SDS011;10318;47.674;9.052;2022-12-18T14:33:48;42.97;;;21.77;;
20320;SDS011;10318;47.674;9.052;2022-12-18T14:36:17;43.30;;;22.60;;
20320;SDS011;10318;47.674;9.052;2022-12-18T14:38:47;42.55;;;21.80;;
20320;SDS011;10318;47.674;9.052;2022-12-18T14:41:15;43.03;;;20.33;;
20320;SDS011;10318;47.674;9.052;2022-12-18T14:43:45;39.28;;;20.35;;
20320;SDS011;10318;47.674;9.052;2022-12-18T14:48:54;38.30;;;18.88;;
20320;SDS011;10318;47.674;9.052;2022-12-18T14:51:22;37.88;;;18.92;;
20320;SDS011;10318;47.674;9.052;2022-12-18T14:53:55;39.17;;;19.02;;
20320;SDS011;10318;47.674;9.052;2022-12-18T14:56:24;39.22;;;19.73;;
20320;SDS011;10318;47.674;9.052;2022-12-18T14:58:55;45.65;;;20.40;;
20320;SDS011;10318;47.674;9.052;2022-12-18T15:01:24;36.90;;;19.00;;
20320;SDS011;10318;47.674;9.052;2022-12-18T15:03:52;37.35;;;19.92;;
20320;SDS011;10318;47.674;9.052;2022-12-18T15:06:30;36.72;;;18.92;;
20320;SDS011;10318;47.674;9.052;2022-12-18T15:08:57;38.92;;;20.00;;
20320;SDS011;10318;47.674;9.052;2022-12-18T15:11:36;43.63;;;20.60;;
20320;SDS011;10318;47.674;9.052;2022-12-18T15:16:54;36.13;;;18.10;;
20320;SDS011;10318;47.674;9.052;2022-12-18T15:19:22;31.48;;;16.25;;
20320;SDS011;10318;47.674;9.052;2022-12-18T15:21:51;38.05;;;17.38;;
20320;SDS011;10318;47.674;9.052;2022-12-18T15:24:20;39.45;;;19.02;;
20320;SDS011;10318;47.674;9.052;2022-12-18T15:26:47;33.50;;;17.83;;
20320;SDS011;10318;47.674;9.052;2022-12-18T15:29:16;35.40;;;17.75;;
20320;SDS011;10318;47.674;9.052;2022-12-18T15:31:45;34.72;;;17.70;;
20320;SDS011;10318;47.674;9.052;2022-12-18T15:34:23;35.35;;;17.80;;
20320;SDS011;10318;47.674;9.052;2022-12-18T15:36:51;33.50;;;17.35;;
20320;SDS011;10318;47.674;9.052;2022-12-18T15:39:18;35.42;;;17.58;;
20320;SDS011;10318;47.674;9.052;2022-12-18T15:41:44;33.05;;;17.33;;
20320;SDS011;10318;47.674;9.052;2022-12-18T15:44:31;31.13;;;16.75;;
20320;SDS011;10318;47.674;9.052;2022-12-18T15:46:58;39.47;;;19.35;;
20320;SDS011;10318;47.674;9.052;2022-12-18T15:49:25;36.30;;;18.95;;
20320;SDS011;10318;47.674;9.052;2022-12-18T15:51:52;39.30;;;19.13;;
20320;SDS011;10318;47.674;9.052;2022-12-18T15:54:19;37.67;;;18.60;;
20320;SDS011;10318;47.674;9.052;2022-12-18T15:57:10;38.25;;;19.17;;
20320;SDS011;10318;47.674;9.052;2022-12-18T15:59:52;40.85;;;20.23;;
20320;SDS011;10318;47.674;9.052;2022-12-18T16:02:19;37.38;;;19.13;;
20320;SDS011;10318;47.674;9.052;2022-12-18T16:04:47;43.63;;;20.48;;
20320;SDS011;10318;47.674;9.052;2022-12-18T16:07:13;41.72;;;21.35;;
20320;SDS011;10318;47.674;9.052;2022-12-18T16:09:48;42.65;;;21.13;;
20320;SDS011;10318;47.674;9.052;2022-12-18T16:12:16;42.40;;;20.52;;
20320;SDS011;10318;47.674;9.052;2022-12-18T16:14:43;41.30;;;19.73;;
20320;SDS011;10318;47.674;9.052;2022-12-18T16:17:11;44.45;;;19.58;;
20320;SDS011;10318;47.674;9.052;2022-12-18T16:19:38;44.30;;;22.00;;
20320;SDS011;10318;47.674;9.052;2022-12-18T16:22:15;45.15;;;21.80;;
20320;SDS011;10318;47.674;9.052;2022-12-18T16:24:43;41.58;;;20.63;;
20320;SDS011;10318;47.674;9.052;2022-12-18T16:27:10;46.17;;;22.05;;